createdAt,value
2023-04-07T00:01:02.948Z,100699.09
2023-04-07T00:03:30.798Z,100690.53
2023-04-07T00:05:58.414Z,100683.91
2023-04-07T00:08:25.721Z,100686.94
2023-04-07T00:10:53.260Z,100702.47
2023-04-07T00:13:20.446Z,100681.06
2023-04-07T00:15:48.055Z,100694.81
2023-04-07T00:18:15.273Z,100692.81
2023-04-07T00:20:42.728Z,100684.25
2023-04-07T00:23:09.924Z,100690.13
2023-04-07T00:25:37.510Z,100688.47
2023-04-07T00:28:04.923Z,100673.81
2023-04-07T00:30:32.441Z,100671.53
2023-04-07T00:32:59.747Z,100668.28
2023-04-07T00:35:27.354Z,100678.53
2023-04-07T00:37:54.572Z,100674.53
2023-04-07T00:40:22.819Z,100671.19
2023-04-07T00:42:50.033Z,100668.75
2023-04-07T00:45:17.503Z,100669.28
2023-04-07T00:47:44.836Z,100661.81
2023-04-07T00:50:12.552Z,100651.41
2023-04-07T00:52:40.501Z,100653.09
2023-04-07T00:55:08.419Z,100656.88
2023-04-07T00:57:35.923Z,100649.25
2023-04-07T01:00:06.844Z,100651.72
2023-04-07T01:02:43.621Z,100645.13
2023-04-07T01:05:20.602Z,100654.63
2023-04-07T01:08:15.065Z,100649.00
2023-04-07T01:10:52.174Z,100649.28
2023-04-07T01:13:34.479Z,100654.72
2023-04-07T01:16:13.411Z,100646.72
2023-04-07T01:18:51.111Z,100647.84
2023-04-07T01:21:19.800Z,100643.91
2023-04-07T01:24:13.348Z,100635.22
2023-04-07T01:26:42.402Z,100635.22
2023-04-07T01:29:34.202Z,100620.34
2023-04-07T01:32:06.371Z,100628.38
2023-04-07T01:34:35.231Z,100603.06
2023-04-07T01:37:03.054Z,100622.34
2023-04-07T01:39:30.790Z,100619.38
2023-04-07T01:41:59.316Z,100628.16
2023-04-07T01:44:27.617Z,100625.63
2023-04-07T01:46:57.237Z,100623.00
2023-04-07T01:49:27.243Z,100617.41
2023-04-07T01:51:55.402Z,100619.88
2023-04-07T01:54:23.513Z,100620.31
2023-04-07T01:56:51.187Z,100621.94
2023-04-07T01:59:18.486Z,100629.00
2023-04-07T02:01:47.131Z,100619.94
2023-04-07T02:04:27.032Z,100620.69
2023-04-07T02:07:06.384Z,100616.31
2023-04-07T02:09:42.542Z,100622.75
2023-04-07T02:12:13.070Z,100627.22
2023-04-07T02:14:45.815Z,100633.41
2023-04-07T02:17:16.812Z,100632.22
2023-04-07T02:19:47.032Z,100632.88
2023-04-07T02:22:16.603Z,100634.94
2023-04-07T02:24:43.928Z,100634.66
2023-04-07T02:27:11.534Z,100627.03
2023-04-07T02:29:38.796Z,100636.66
2023-04-07T02:32:06.913Z,100630.75
2023-04-07T02:34:34.117Z,100631.94
2023-04-07T02:37:01.684Z,100625.03
2023-04-07T02:39:28.927Z,100624.47
2023-04-07T02:41:56.907Z,100613.34
2023-04-07T02:44:24.082Z,100621.66
2023-04-07T02:46:51.619Z,100618.25
2023-04-07T02:49:18.887Z,100613.88
2023-04-07T02:51:47.113Z,100616.88
2023-04-07T02:54:14.357Z,100619.63
2023-04-07T02:56:42.022Z,100610.41
2023-04-07T02:59:09.403Z,100614.53
2023-04-07T03:01:41.692Z,100613.50
2023-04-07T03:04:09.414Z,100616.09
2023-04-07T03:06:36.972Z,100607.44
2023-04-07T03:09:09.794Z,100614.69
2023-04-07T03:11:37.687Z,100608.81
2023-04-07T03:14:05.016Z,100612.88
2023-04-07T03:16:33.806Z,100606.22
2023-04-07T03:19:06.358Z,100604.63
2023-04-07T03:21:38.635Z,100597.34
2023-04-07T03:24:07.122Z,100607.50
2023-04-07T03:26:35.080Z,100614.78
2023-04-07T03:29:04.374Z,100614.47
2023-04-07T03:31:32.363Z,100619.47
2023-04-07T03:33:59.535Z,100616.47
2023-04-07T03:36:28.248Z,100621.13
2023-04-07T03:38:58.780Z,100609.91
2023-04-07T03:41:26.321Z,100611.72
2023-04-07T03:43:53.720Z,100606.13
2023-04-07T03:46:21.698Z,100607.59
2023-04-07T03:48:49.060Z,100612.06
2023-04-07T03:51:17.395Z,100611.28
2023-04-07T03:53:47.300Z,100610.00
2023-04-07T03:56:28.891Z,100606.78
2023-04-07T03:58:58.276Z,100612.47
2023-04-07T04:01:29.962Z,100609.94
2023-04-07T04:04:01.100Z,100610.63
2023-04-07T04:06:31.519Z,100607.31
2023-04-07T04:09:09.549Z,100615.38
2023-04-07T04:11:42.826Z,100616.47
2023-04-07T04:14:10.026Z,100601.84
2023-04-07T04:16:38.457Z,100607.06
2023-04-07T04:19:14.448Z,100618.75
2023-04-07T04:21:43.239Z,100611.03
2023-04-07T04:24:10.876Z,100628.44
2023-04-07T04:26:38.556Z,100616.66
2023-04-07T04:29:11.305Z,100624.16
2023-04-07T04:31:40.814Z,100621.19
2023-04-07T04:34:08.753Z,100622.34
2023-04-07T04:36:37.980Z,100631.81
2023-04-07T04:39:06.599Z,100615.34
2023-04-07T04:41:35.854Z,100611.69
2023-04-07T04:44:03.627Z,100617.22
2023-04-07T04:46:32.393Z,100621.25
2023-04-07T04:49:00.374Z,100607.09
2023-04-07T04:51:28.058Z,100593.94
2023-04-07T04:54:02.810Z,100602.94
2023-04-07T04:56:30.796Z,100588.13
2023-04-07T04:58:58.033Z,100602.00
2023-04-07T05:01:34.370Z,100596.03
2023-04-07T05:04:07.249Z,100587.06
2023-04-07T05:06:35.177Z,100585.22
2023-04-07T05:09:07.770Z,100602.56
2023-04-07T05:11:43.478Z,100616.94
2023-04-07T05:14:10.926Z,100614.56
2023-04-07T05:16:43.265Z,100611.97
2023-04-07T05:19:16.458Z,100612.03
2023-04-07T05:21:44.419Z,100616.28
2023-04-07T05:24:12.642Z,100617.56
2023-04-07T05:26:40.653Z,100615.00
2023-04-07T05:29:08.676Z,100608.84
2023-04-07T05:31:37.517Z,100615.03
2023-04-07T05:34:09.129Z,100603.28
2023-04-07T05:36:43.337Z,100608.47
2023-04-07T05:39:10.808Z,100618.03
2023-04-07T05:41:38.370Z,100620.44
2023-04-07T05:44:06.676Z,100628.13
2023-04-07T05:46:38.259Z,100625.03
2023-04-07T05:49:18.947Z,100624.84
2023-04-07T05:51:50.434Z,100614.81
2023-04-07T05:54:17.631Z,100618.19
2023-04-07T05:56:45.563Z,100621.00
2023-04-07T05:59:12.809Z,100630.63
2023-04-07T06:01:40.481Z,100625.28
2023-04-07T06:04:09.157Z,100631.56
2023-04-07T06:06:36.784Z,100645.59
2023-04-07T06:09:05.756Z,100636.44
2023-04-07T06:11:34.456Z,100620.41
2023-04-07T06:14:01.631Z,100617.19
2023-04-07T06:16:29.318Z,100618.50
2023-04-07T06:18:56.893Z,100625.19
2023-04-07T06:21:25.580Z,100637.56
2023-04-07T06:23:52.850Z,100632.75
2023-04-07T06:26:21.758Z,100645.34
2023-04-07T06:28:49.172Z,100652.06
2023-04-07T06:31:18.111Z,100633.94
2023-04-07T06:33:46.063Z,100644.53
2023-04-07T06:36:14.157Z,100644.16
2023-04-07T06:38:41.445Z,100645.72
2023-04-07T06:41:11.837Z,100650.81
2023-04-07T06:43:39.023Z,100651.53
2023-04-07T06:46:08.556Z,100645.34
2023-04-07T06:48:35.847Z,100651.78
2023-04-07T06:51:03.635Z,100647.50
2023-04-07T06:53:30.954Z,100646.94
2023-04-07T06:56:08.576Z,100651.81
2023-04-07T06:58:37.122Z,100651.34
2023-04-07T07:01:06.303Z,100651.50
2023-04-07T07:03:34.085Z,100656.25
2023-04-07T07:06:02.478Z,100655.63
2023-04-07T07:08:30.843Z,100649.22
2023-04-07T07:10:58.782Z,100645.81
2023-04-07T07:13:27.394Z,100656.31
2023-04-07T07:15:55.640Z,100658.16
2023-04-07T07:18:22.961Z,100657.72
2023-04-07T07:20:51.153Z,100668.94
2023-04-07T07:23:18.411Z,100665.91
2023-04-07T07:25:46.114Z,100666.31
2023-04-07T07:28:13.362Z,100664.78
2023-04-07T07:30:41.688Z,100649.69
2023-04-07T07:33:08.953Z,100654.31
2023-04-07T07:35:38.001Z,100658.41
2023-04-07T07:38:05.507Z,100654.31
2023-04-07T07:40:33.459Z,100661.00
2023-04-07T07:43:01.080Z,100667.59
2023-04-07T07:45:28.582Z,100657.69
2023-04-07T07:47:56.068Z,100662.59
2023-04-07T07:50:23.782Z,100658.38
2023-04-07T07:52:51.051Z,100667.47
2023-04-07T07:55:18.591Z,100660.97
2023-04-07T07:57:45.867Z,100655.53
2023-04-07T08:00:13.948Z,100656.50
2023-04-07T08:02:41.377Z,100661.72
2023-04-07T08:05:09.295Z,100666.03
2023-04-07T08:07:36.712Z,100674.53
2023-04-07T08:10:04.423Z,100675.44
2023-04-07T08:12:31.659Z,100676.03
2023-04-07T08:14:59.141Z,100663.84
2023-04-07T08:17:26.655Z,100665.97
2023-04-07T08:19:54.254Z,100665.69
2023-04-07T08:22:21.485Z,100658.72
2023-04-07T08:24:49.024Z,100645.78
2023-04-07T08:27:16.251Z,100660.41
2023-04-07T08:29:43.761Z,100649.38
2023-04-07T08:32:11.280Z,100667.81
2023-04-07T08:34:38.778Z,100656.53
2023-04-07T08:37:06.159Z,100661.25
2023-04-07T08:39:34.161Z,100678.53
2023-04-07T08:42:01.648Z,100671.78
2023-04-07T08:44:30.115Z,100659.44
2023-04-07T08:46:59.735Z,100664.69
2023-04-07T08:49:30.026Z,100671.34
2023-04-07T08:52:00.208Z,100661.63
2023-04-07T08:54:28.869Z,100670.72
2023-04-07T08:56:56.684Z,100669.28
2023-04-07T08:59:26.848Z,100659.72
2023-04-07T09:01:55.214Z,100669.75
2023-04-07T09:04:25.673Z,100659.31
2023-04-07T09:06:53.131Z,100654.63
2023-04-07T09:09:20.878Z,100665.19
2023-04-07T09:11:48.656Z,100659.94
2023-04-07T09:14:16.510Z,100646.03
2023-04-07T09:16:43.908Z,100653.91
2023-04-07T09:19:11.468Z,100645.50
2023-04-07T09:21:51.799Z,100639.25
2023-04-07T09:24:23.490Z,100638.38
2023-04-07T09:26:51.119Z,100632.25
2023-04-07T09:29:20.761Z,100635.66
2023-04-07T09:31:50.572Z,100636.78
2023-04-07T09:34:24.146Z,100647.41
2023-04-07T09:36:51.365Z,100639.19
2023-04-07T09:39:19.667Z,100642.34
2023-04-07T09:41:47.476Z,100650.78
2023-04-07T09:44:15.446Z,100639.25
2023-04-07T09:46:56.815Z,100644.22
2023-04-07T09:49:26.113Z,100644.19
2023-04-07T09:51:55.158Z,100654.41
2023-04-07T09:54:36.122Z,100656.22
2023-04-07T09:57:08.424Z,100641.22
2023-04-07T09:59:37.863Z,100658.09
2023-04-07T10:02:06.280Z,100643.28
2023-04-07T10:04:34.037Z,100651.09
2023-04-07T10:07:03.336Z,100654.66
2023-04-07T10:09:31.238Z,100652.69
2023-04-07T10:11:59.965Z,100660.88
2023-04-07T10:14:31.113Z,100653.91
2023-04-07T10:17:01.667Z,100658.31
2023-04-07T10:19:34.714Z,100645.97
2023-04-07T10:22:05.536Z,100655.50
2023-04-07T10:24:55.417Z,100651.69
2023-04-07T10:27:31.234Z,100657.69
2023-04-07T10:30:00.411Z,100654.28
2023-04-07T10:32:27.668Z,100651.81
2023-04-07T10:34:55.147Z,100659.16
2023-04-07T10:37:23.205Z,100642.31
2023-04-07T10:39:52.847Z,100649.91
2023-04-07T10:42:38.790Z,100637.31
2023-04-07T10:45:10.620Z,100638.78
2023-04-07T10:48:00.870Z,100651.38
2023-04-07T10:50:29.393Z,100651.59
2023-04-07T10:53:08.246Z,100641.47
2023-04-07T10:55:44.786Z,100647.84
2023-04-07T10:58:34.056Z,100635.75
2023-04-07T11:01:01.699Z,100634.44
2023-04-07T11:03:30.851Z,100633.75
2023-04-07T11:06:08.524Z,100653.38
2023-04-07T11:08:45.689Z,100637.44
2023-04-07T11:11:16.687Z,100634.59
2023-04-07T11:13:49.405Z,100618.59
2023-04-07T11:16:19.517Z,100641.00
2023-04-07T11:18:49.975Z,100644.44
2023-04-07T11:21:20.303Z,100627.19
2023-04-07T11:23:48.662Z,100631.25
2023-04-07T11:26:16.632Z,100639.34
2023-04-07T11:28:49.284Z,100623.56
2023-04-07T11:31:28.194Z,100620.38
2023-04-07T11:33:56.935Z,100636.28
2023-04-07T11:36:38.167Z,100640.84
2023-04-07T11:39:05.483Z,100627.09
2023-04-07T11:41:33.929Z,100621.75
2023-04-07T11:44:08.558Z,100622.09
2023-04-07T11:46:36.895Z,100624.00
2023-04-07T11:49:13.260Z,100619.88
2023-04-07T11:51:43.334Z,100622.00
2023-04-07T11:54:11.293Z,100633.19
2023-04-07T11:56:44.943Z,100626.94
2023-04-07T11:59:25.293Z,100625.53
2023-04-07T12:01:56.149Z,100622.56
2023-04-07T12:04:24.615Z,100624.94
2023-04-07T12:06:52.276Z,100618.28
2023-04-07T12:09:29.424Z,100625.53
2023-04-07T12:11:57.907Z,100626.09
2023-04-07T12:14:26.391Z,100616.47
2023-04-07T12:16:56.978Z,100623.94
2023-04-07T12:19:27.810Z,100613.34
2023-04-07T12:21:58.631Z,100625.13
2023-04-07T12:24:26.437Z,100619.28
2023-04-07T12:26:54.098Z,100614.56
2023-04-07T12:29:21.404Z,100622.91
2023-04-07T12:31:50.864Z,100621.56
2023-04-07T12:34:19.072Z,100619.22
2023-04-07T12:36:47.019Z,100618.09
2023-04-07T12:39:17.349Z,100626.69
2023-04-07T12:41:46.199Z,100637.22
2023-04-07T12:44:13.450Z,100637.13
2023-04-07T12:46:41.243Z,100632.69
2023-04-07T12:49:08.778Z,100639.16
2023-04-07T12:51:36.529Z,100637.34
2023-04-07T12:54:04.446Z,100632.91
2023-04-07T12:56:32.598Z,100632.97
2023-04-07T12:59:00.101Z,100632.47
2023-04-07T13:01:27.834Z,100635.31
2023-04-07T13:03:55.389Z,100639.09
2023-04-07T13:06:22.998Z,100627.53
2023-04-07T13:08:50.341Z,100650.63
2023-04-07T13:11:17.898Z,100638.09
2023-04-07T13:13:45.433Z,100641.50
2023-04-07T13:16:13.021Z,100647.63
2023-04-07T13:18:40.222Z,100657.13
2023-04-07T13:21:33.722Z,100647.09
2023-04-07T13:23:55.232Z,100639.31
2023-04-07T13:26:23.092Z,100639.59
2023-04-07T13:28:50.317Z,100633.00
2023-04-07T13:31:18.213Z,100631.84
2023-04-07T13:33:45.558Z,100640.97
2023-04-07T13:36:13.113Z,100643.88
2023-04-07T13:38:42.476Z,100648.44
2023-04-07T13:41:10.077Z,100638.63
2023-04-07T13:43:37.300Z,100636.19
2023-04-07T13:46:07.760Z,100625.16
2023-04-07T13:48:39.040Z,100636.63
2023-04-07T13:51:06.538Z,100630.34
2023-04-07T13:53:33.717Z,100625.69
2023-04-07T13:56:01.566Z,100630.56
2023-04-07T13:58:30.971Z,100608.22
2023-04-07T14:00:59.490Z,100632.91
2023-04-07T14:03:26.802Z,100617.00
2023-04-07T14:05:54.565Z,100620.91
2023-04-07T14:08:23.710Z,100614.88
2023-04-07T14:10:51.480Z,100614.56
2023-04-07T14:13:18.743Z,100618.78
2023-04-07T14:15:48.440Z,100621.44
2023-04-07T14:18:15.798Z,100620.47
2023-04-07T14:20:43.541Z,100619.97
2023-04-07T14:23:11.528Z,100621.66
2023-04-07T14:25:39.061Z,100612.22
2023-04-07T14:28:06.506Z,100611.72
2023-04-07T14:30:38.808Z,100614.22
2023-04-07T14:33:06.067Z,100610.88
2023-04-07T14:35:33.644Z,100611.97
2023-04-07T14:38:00.858Z,100617.28
2023-04-07T14:40:28.338Z,100618.41
2023-04-07T14:45:28.616Z,100612.34
2023-04-07T14:47:56.376Z,100616.97
2023-04-07T14:50:24.006Z,100622.31
2023-04-07T14:52:52.208Z,100625.03
2023-04-07T14:55:19.988Z,100623.22
2023-04-07T14:57:47.187Z,100624.59
2023-04-07T15:00:15.090Z,100613.13
2023-04-07T15:02:42.659Z,100613.34
2023-04-07T15:05:10.542Z,100620.81
2023-04-07T15:07:37.723Z,100616.13
2023-04-07T15:10:05.935Z,100624.25
2023-04-07T15:12:33.493Z,100615.03
2023-04-07T15:15:01.070Z,100615.06
2023-04-07T15:17:42.411Z,100612.34
2023-04-07T15:20:13.211Z,100602.56
2023-04-07T15:22:40.769Z,100615.53
2023-04-07T15:25:08.860Z,100616.94
2023-04-07T15:27:36.271Z,100614.16
2023-04-07T15:30:04.102Z,100616.00
2023-04-07T15:32:31.989Z,100618.38
2023-04-07T15:34:59.672Z,100594.59
2023-04-07T15:37:26.992Z,100615.75
2023-04-07T15:39:54.500Z,100611.88
2023-04-07T15:42:21.664Z,100615.16
2023-04-07T15:44:50.872Z,100612.22
2023-04-07T15:47:18.054Z,100607.13
2023-04-07T15:49:45.554Z,100606.88
2023-04-07T15:52:14.090Z,100617.63
2023-04-07T15:54:41.596Z,100604.06
2023-04-07T15:57:08.845Z,100612.09
2023-04-07T15:59:36.336Z,100610.38
2023-04-07T16:02:04.000Z,100611.19
2023-04-07T16:04:31.557Z,100616.78
2023-04-07T16:06:58.801Z,100602.09
2023-04-07T16:09:26.983Z,100616.47
2023-04-07T16:11:55.036Z,100606.59
2023-04-07T16:14:22.612Z,100614.41
2023-04-07T16:16:53.800Z,100622.34
2023-04-07T16:19:21.566Z,100615.78
2023-04-07T16:21:48.857Z,100618.69
2023-04-07T16:24:16.340Z,100623.94
2023-04-07T16:26:43.612Z,100626.56
2023-04-07T16:29:11.099Z,100625.31
2023-04-07T16:31:38.320Z,100626.38
2023-04-07T16:34:05.921Z,100622.16
2023-04-07T16:36:33.176Z,100618.75
2023-04-07T16:39:00.638Z,100630.97
2023-04-07T16:41:27.966Z,100625.91
2023-04-07T16:43:55.958Z,100643.06
2023-04-07T16:46:26.253Z,100627.19
2023-04-07T16:48:54.095Z,100632.72
2023-04-07T16:51:21.981Z,100637.56
2023-04-07T16:53:49.670Z,100643.56
2023-04-07T16:56:22.037Z,100636.47
2023-04-07T16:58:50.357Z,100645.94
2023-04-07T17:01:18.421Z,100636.47
2023-04-07T17:03:48.923Z,100641.88
2023-04-07T17:06:16.768Z,100649.56
2023-04-07T17:08:44.287Z,100651.59
2023-04-07T17:11:13.257Z,100656.13
2023-04-07T17:13:40.900Z,100659.38
2023-04-07T17:16:13.866Z,100647.59
2023-04-07T17:18:41.490Z,100663.25
2023-04-07T17:21:08.669Z,100659.22
2023-04-07T17:23:36.235Z,100665.53
2023-04-07T17:26:03.478Z,100654.97
2023-04-07T17:28:31.126Z,100667.94
2023-04-07T17:30:58.709Z,100675.69
2023-04-07T17:33:26.310Z,100659.97
2023-04-07T17:35:53.633Z,100665.81
2023-04-07T17:38:21.139Z,100669.72
2023-04-07T17:40:48.310Z,100664.56
2023-04-07T17:43:15.885Z,100679.91
2023-04-07T17:45:43.073Z,100673.94
2023-04-07T17:48:12.125Z,100681.03
2023-04-07T17:50:39.504Z,100694.94
2023-04-07T17:53:07.803Z,100685.81
2023-04-07T17:55:35.095Z,100692.84
2023-04-07T17:58:02.595Z,100705.91
2023-04-07T18:00:30.124Z,100693.34
2023-04-07T18:02:57.794Z,100704.03
2023-04-07T18:05:26.146Z,100713.13
2023-04-07T18:07:54.936Z,100724.16
2023-04-07T18:10:22.247Z,100705.31
2023-04-07T18:12:49.792Z,100712.00
2023-04-07T18:15:17.346Z,100717.88
2023-04-07T18:17:44.927Z,100717.50
2023-04-07T18:20:13.184Z,100724.00
2023-04-07T18:22:40.980Z,100715.94
2023-04-07T18:25:09.643Z,100724.34
2023-04-07T18:27:37.855Z,100719.25
2023-04-07T18:30:06.166Z,100730.06
2023-04-07T18:32:33.753Z,100725.91
2023-04-07T18:35:01.364Z,100728.94
2023-04-07T18:37:29.725Z,100727.13
2023-04-07T18:39:56.950Z,100731.88
2023-04-07T18:42:24.554Z,100729.19
2023-04-07T18:44:51.817Z,100722.47
2023-04-07T18:47:19.362Z,100742.69
2023-04-07T18:49:46.602Z,100742.94
2023-04-07T18:52:14.217Z,100746.00
2023-04-07T18:54:41.478Z,100734.41
2023-04-07T18:57:09.003Z,100738.31
2023-04-07T18:59:36.563Z,100746.81
2023-04-07T19:02:04.158Z,100739.38
2023-04-07T19:04:31.486Z,100739.94
2023-04-07T19:06:59.193Z,100740.19
2023-04-07T19:09:26.430Z,100740.44
2023-04-07T19:11:53.933Z,100747.09
2023-04-07T19:14:21.188Z,100746.84
2023-04-07T19:16:48.806Z,100739.56
2023-04-07T19:19:17.415Z,100764.09
2023-04-07T19:21:45.029Z,100749.34
2023-04-07T19:24:12.260Z,100748.72
2023-04-07T19:26:39.850Z,100747.75
2023-04-07T19:29:07.268Z,100740.22
2023-04-07T19:31:35.385Z,100742.38
2023-04-07T19:34:02.670Z,100741.06
2023-04-07T19:36:31.394Z,100737.00
2023-04-07T19:38:58.599Z,100758.72
2023-04-07T19:41:26.194Z,100742.75
2023-04-07T19:43:53.503Z,100743.25
2023-04-07T19:46:21.026Z,100738.31
2023-04-07T19:48:48.695Z,100743.47
2023-04-07T19:51:16.779Z,100744.47
2023-04-07T19:53:43.969Z,100748.72
2023-04-07T19:56:12.612Z,100745.38
2023-04-07T19:58:39.882Z,100744.81
2023-04-07T20:01:16.189Z,100744.16
2023-04-07T20:03:44.232Z,100749.25
2023-04-07T20:06:14.611Z,100749.81
2023-04-07T20:08:42.343Z,100766.41
2023-04-07T20:11:13.065Z,100764.56
2023-04-07T20:13:41.603Z,100759.19
2023-04-07T20:16:09.140Z,100774.91
2023-04-07T20:18:36.695Z,100763.94
2023-04-07T20:21:07.619Z,100771.88
2023-04-07T20:23:34.854Z,100783.19
2023-04-07T20:26:02.533Z,100782.44
2023-04-07T20:28:30.816Z,100780.03
2023-04-07T20:30:58.478Z,100776.88
2023-04-07T20:33:25.777Z,100769.94
2023-04-07T20:35:53.398Z,100783.09
2023-04-07T20:38:20.738Z,100778.22
2023-04-07T20:40:48.330Z,100773.34
2023-04-07T20:43:18.162Z,100782.47
2023-04-07T20:45:47.578Z,100781.03
2023-04-07T20:48:17.166Z,100767.97
2023-04-07T20:50:44.912Z,100778.56
2023-04-07T20:53:13.538Z,100774.94
2023-04-07T20:55:41.338Z,100775.66
2023-04-07T20:58:08.602Z,100783.44
2023-04-07T21:00:36.731Z,100778.34
2023-04-07T21:03:04.101Z,100765.41
2023-04-07T21:05:31.809Z,100767.84
2023-04-07T21:07:59.329Z,100780.53
2023-04-07T21:10:26.866Z,100781.66
2023-04-07T21:12:54.089Z,100788.81
2023-04-07T21:15:21.622Z,100784.69
2023-04-07T21:17:48.970Z,100786.63
2023-04-07T21:20:16.664Z,100800.66
2023-04-07T21:22:44.330Z,100804.41
2023-04-07T21:25:12.892Z,100817.34
2023-04-07T21:27:41.374Z,100793.19
2023-04-07T21:30:09.310Z,100805.38
2023-04-07T21:32:36.830Z,100794.59
2023-04-07T21:35:04.669Z,100812.94
2023-04-07T21:37:31.885Z,100804.47
2023-04-07T21:39:59.413Z,100815.06
2023-04-07T21:42:26.624Z,100814.88
2023-04-07T21:44:54.145Z,100807.03
2023-04-07T21:47:21.698Z,100813.78
2023-04-07T21:49:49.255Z,100812.13
2023-04-07T21:52:19.947Z,100812.63
2023-04-07T21:54:47.649Z,100808.06
2023-04-07T21:57:14.925Z,100804.56
2023-04-07T21:59:42.483Z,100802.94
2023-04-07T22:02:10.096Z,100813.66
2023-04-07T22:04:38.014Z,100810.75
2023-04-07T22:07:05.197Z,100813.06
2023-04-07T22:09:32.749Z,100807.44
2023-04-07T22:12:00.049Z,100806.41
2023-04-07T22:14:27.590Z,100817.75
2023-04-07T22:16:55.216Z,100826.56
2023-04-07T22:19:22.833Z,100821.28
2023-04-07T22:21:49.981Z,100808.00
2023-04-07T22:24:17.443Z,100825.09
2023-04-07T22:26:44.720Z,100820.59
2023-04-07T22:29:12.252Z,100833.88
2023-04-07T22:31:39.628Z,100830.25
2023-04-07T22:34:08.422Z,100827.81
2023-04-07T22:36:36.523Z,100830.75
2023-04-07T22:39:04.123Z,100824.78
2023-04-07T22:41:31.674Z,100829.31
2023-04-07T22:43:59.256Z,100825.50
2023-04-07T22:46:26.507Z,100824.66
2023-04-07T22:48:54.296Z,100828.31
2023-04-07T22:51:22.124Z,100827.13
2023-04-07T22:53:49.962Z,100825.88
2023-04-07T22:56:17.145Z,100823.78
2023-04-07T22:58:44.611Z,100831.75
2023-04-07T23:01:11.997Z,100828.41
2023-04-07T23:03:39.697Z,100845.72
2023-04-07T23:06:06.975Z,100869.19
2023-04-07T23:08:34.477Z,100866.28
2023-04-07T23:11:02.012Z,100859.75
2023-04-07T23:13:29.661Z,100866.09
2023-04-07T23:15:58.169Z,100859.13
2023-04-07T23:18:25.871Z,100854.88
2023-04-07T23:20:53.247Z,100836.63
2023-04-07T23:23:20.801Z,100848.31
2023-04-07T23:25:48.050Z,100840.41
2023-04-07T23:28:15.603Z,100842.31
2023-04-07T23:30:42.878Z,100840.63
2023-04-07T23:33:10.408Z,100847.91
2023-04-07T23:35:37.645Z,100836.34
2023-04-07T23:38:05.748Z,100830.97
2023-04-07T23:40:32.978Z,100824.41
2023-04-07T23:43:00.609Z,100830.34
2023-04-07T23:45:27.985Z,100843.66
2023-04-07T23:47:55.701Z,100831.16
2023-04-07T23:50:23.118Z,100845.31
2023-04-07T23:52:50.968Z,100844.25
2023-04-07T23:55:18.245Z,100838.53
2023-04-07T23:57:45.858Z,100840.72
